<?xml version="1.0" encoding="UTF-8"?><gpx version="1.1" creator="Garmin Explore App" xmlns="http://www.topografix.com/GPX/1/1" xmlns:adv="http://www.garmin.com/xmlschemas/AdventuresExtensions/v1" xmlns:gpxtpx="http://www.garmin.com/xmlschemas/TrackPointExtension/v1" xmlns:gpxtrx="http://www.garmin.com/xmlschemas/GpxExtensions/v3" xmlns:gpxx="http://www.garmin.com/xmlschemas/GpxExtensions/v3" xmlns:trp="http://www.garmin.com/xmlschemas/TripExtensions/v1" xmlns:wptx1="http://www.garmin.com/xmlschemas/WaypointExtension/v1" xmlns:xsi="http://www.w3.org/2001/XMLSchema-instance" xsi:schemaLocation="http://www.topografix.com/GPX/1/1 http://www.topografix.com/GPX/1/1/gpx.xsd http://www.garmin.com/xmlschemas/WaypointExtension/v1 http://www8.garmin.com/xmlschemas/WaypointExtensionv1.xsd http://www.garmin.com/xmlschemas/TrackPointExtension/v1 http://www.garmin.com/xmlschemas/TrackPointExtensionv1.xsd http://www.garmin.com/xmlschemas/GpxExtensions/v3 http://www8.garmin.com/xmlschemas/GpxExtensionsv3.xsd http://www.garmin.com/xmlschemas/ActivityExtension/v1 http://www8.garmin.com/xmlschemas/ActivityExtensionv1.xsd http://www.garmin.com/xmlschemas/AdventuresExtensions/v1 http://www8.garmin.com/xmlschemas/AdventuresExtensionv1.xsd http://www.garmin.com/xmlschemas/PressureExtension/v1 http://www.garmin.com/xmlschemas/PressureExtensionv1.xsd"><metadata><name>Alpha® 200i.gpx</name><link href="http://www.garmin.com"><text>Garmin International</text></link><time>2025-08-16T08:08:30.843Z</time></metadata><trk><name><![CDATA[Alpha® 200i]]></name><extensions><gpxx:TrackExtension xmlns:gpxx="http://www.garmin.com/xmlschemas/GpxExtensions/v3"><gpxx:DisplayColor>Cyan</gpxx:DisplayColor></gpxx:TrackExtension></extensions><trkseg><trkpt lat="49.99956300482154" lon="8.532685646787286"><time>2025-08-16T06:17:49.000Z</time><extensions/></trkpt><trkpt lat="49.999538864940405" lon="8.532672235742211"><time>2025-08-16T06:18:13.000Z</time><extensions/></trkpt><trkpt lat="49.999412801116705" lon="8.532680282369256"><time>2025-08-16T06:18:56.000Z</time><extensions/></trkpt><trkpt lat="49.99947717413306" lon="8.532650778070092"><time>2025-08-16T06:19:15.000Z</time><extensions/></trkpt><trkpt lat="49.99952210113406" lon="8.53259939700365"><time>2025-08-16T06:19:22.000Z</time><extensions/></trkpt><trkpt lat="49.999546241015196" lon="8.532580621540546"><time>2025-08-16T06:19:24.000Z</time><extensions/></trkpt><trkpt lat="49.99968118965626" lon="8.53245816193521"><time>2025-08-16T06:19:54.000Z</time><extensions/></trkpt><trkpt lat="49.99964900314808" lon="8.532372331246734"><time>2025-08-16T06:20:00.000Z</time><extensions/></trkpt><trkpt lat="49.999887719750404" lon="8.532329415902495"><time>2025-08-16T06:20:29.000Z</time><extensions/></trkpt><trkpt lat="49.99993868172169" lon="8.532289182767272"><time>2025-08-16T06:21:08.000Z</time><extensions/></trkpt><trkpt lat="50.00003197230399" lon="8.532324135303497"><time>2025-08-16T06:21:25.000Z</time><extensions/></trkpt><trkpt lat="50.00016608275473" lon="8.532372415065765"><time>2025-08-16T06:22:28.000Z</time><extensions/></trkpt><trkpt lat="50.000270353630185" lon="8.53231692686677"><time>2025-08-16T06:22:52.000Z</time><extensions/></trkpt><trkpt lat="50.000675367191434" lon="8.532150629907846"><time>2025-08-16T06:23:45.000Z</time><extensions/></trkpt><trkpt lat="50.000925064086914" lon="8.532016100361943"><time>2025-08-16T06:24:11.000Z</time><extensions/></trkpt><trkpt lat="50.00126838684082" lon="8.531927587464452"><time>2025-08-16T06:24:58.000Z</time><extensions/></trkpt><trkpt lat="50.00135371461511" lon="8.531882911920547"><time>2025-08-16T06:25:16.000Z</time><extensions/></trkpt><trkpt lat="50.001549515873194" lon="8.532848507165909"><time>2025-08-16T06:27:02.000Z</time><extensions/></trkpt><trkpt lat="50.00153669156134" lon="8.532968033105135"><time>2025-08-16T06:27:19.000Z</time><extensions/></trkpt><trkpt lat="50.00156887806952" lon="8.533257711678743"><time>2025-08-16T06:28:10.000Z</time><extensions/></trkpt><trkpt lat="50.001586731523275" lon="8.533335663378239"><time>2025-08-16T06:28:39.000Z</time><extensions/></trkpt><trkpt lat="50.00161087140441" lon="8.533515371382236"><time>2025-08-16T06:28:52.000Z</time><extensions/></trkpt><trkpt lat="50.00160014256835" lon="8.533856011927128"><time>2025-08-16T06:29:13.000Z</time><extensions/></trkpt><trkpt lat="50.00163501128554" lon="8.53404376655817"><time>2025-08-16T06:29:39.000Z</time><extensions/></trkpt><trkpt lat="50.00174766406417" lon="8.53418592363596"><time>2025-08-16T06:30:06.000Z</time><extensions/></trkpt><trkpt lat="50.001761158928275" lon="8.534382814541459"><time>2025-08-16T06:30:28.000Z</time><extensions/></trkpt><trkpt lat="50.00182553194463" lon="8.534683221951127"><time>2025-08-16T06:30:52.000Z</time><extensions/></trkpt><trkpt lat="50.0018444750458" lon="8.53482604958117"><time>2025-08-16T06:31:18.000Z</time><extensions/></trkpt><trkpt lat="50.001868614926934" lon="8.535070130601525"><time>2025-08-16T06:31:37.000Z</time><extensions/></trkpt><trkpt lat="50.00188076868653" lon="8.535454776138067"><time>2025-08-16T06:32:01.000Z</time><extensions/></trkpt><trkpt lat="50.00202829018235" lon="8.535843696445227"><time>2025-08-16T06:32:28.000Z</time><extensions/></trkpt><trkpt lat="50.00213608145714" lon="8.5360505618155"><time>2025-08-16T06:32:44.000Z</time><extensions/></trkpt><trkpt lat="50.00218167901039" lon="8.536270502954721"><time>2025-08-16T06:33:00.000Z</time><extensions/></trkpt><trkpt lat="50.00215217471123" lon="8.536509219557047"><time>2025-08-16T06:33:16.000Z</time><extensions/></trkpt><trkpt lat="50.002101212739944" lon="8.536814991384745"><time>2025-08-16T06:33:36.000Z</time><extensions/></trkpt><trkpt lat="50.00207330100238" lon="8.536970308050513"><time>2025-08-16T06:33:46.000Z</time><extensions/></trkpt><trkpt lat="50.00193919055164" lon="8.537200978025794"><time>2025-08-16T06:34:02.000Z</time><extensions/></trkpt><trkpt lat="50.00197674147785" lon="8.537437012419105"><time>2025-08-16T06:34:15.000Z</time><extensions/></trkpt><trkpt lat="50.00187481753528" lon="8.537525525316596"><time>2025-08-16T06:34:30.000Z</time><extensions/></trkpt><trkpt lat="50.00169008038938" lon="8.537638848647475"><time>2025-08-16T06:34:50.000Z</time><extensions/></trkpt><trkpt lat="50.001588156446815" lon="8.537502055987716"><time>2025-08-16T06:35:08.000Z</time><extensions/></trkpt><trkpt lat="50.001478185877204" lon="8.537150686606765"><time>2025-08-16T06:35:32.000Z</time><extensions/></trkpt><trkpt lat="50.00141381286085" lon="8.536705439910293"><time>2025-08-16T06:36:00.000Z</time><extensions/></trkpt><trkpt lat="50.0014506932348" lon="8.536494467407465"><time>2025-08-16T06:36:25.000Z</time><extensions/></trkpt><trkpt lat="50.001364862546325" lon="8.536317441612482"><time>2025-08-16T06:37:16.000Z</time><extensions/></trkpt><trkpt lat="50.00134600326419" lon="8.53624016046524"><time>2025-08-16T06:37:42.000Z</time><extensions/></trkpt><trkpt lat="50.00124676153064" lon="8.536143600940704"><time>2025-08-16T06:38:21.000Z</time><extensions/></trkpt><trkpt lat="50.001151794567704" lon="8.536084340885282"><time>2025-08-16T06:38:44.000Z</time><extensions/></trkpt><trkpt lat="50.00112765468657" lon="8.53600119240582"><time>2025-08-16T06:38:55.000Z</time><extensions/></trkpt><trkpt lat="50.001002261415124" lon="8.535893820226192"><time>2025-08-16T06:39:17.000Z</time><extensions/></trkpt><trkpt lat="50.00120342709124" lon="8.535566590726376"><time>2025-08-16T06:39:49.000Z</time><extensions/></trkpt><trkpt lat="50.001222202554345" lon="8.535220585763454"><time>2025-08-16T06:40:15.000Z</time><extensions/></trkpt><trkpt lat="50.001206109300256" lon="8.535166941583157"><time>2025-08-16T06:40:18.000Z</time><extensions/></trkpt><trkpt lat="50.00111650675535" lon="8.534928560256958"><time>2025-08-16T06:40:42.000Z</time><extensions/></trkpt><trkpt lat="50.00100653618574" lon="8.534767627716064"><time>2025-08-16T06:41:03.000Z</time><extensions/></trkpt><trkpt lat="50.000926153734326" lon="8.534660255536437"><time>2025-08-16T06:41:23.000Z</time><extensions/></trkpt><trkpt lat="50.000956328585744" lon="8.53443712927401"><time>2025-08-16T06:41:44.000Z</time><extensions/></trkpt><trkpt lat="50.000945599749684" lon="8.534227916970849"><time>2025-08-16T06:42:05.000Z</time><extensions/></trkpt><trkpt lat="50.00080612488091" lon="8.533865818753839"><time>2025-08-16T06:42:36.000Z</time><extensions/></trkpt><trkpt lat="50.00070688314736" lon="8.533645877614617"><time>2025-08-16T06:43:03.000Z</time><extensions/></trkpt><trkpt lat="50.000584591180086" lon="8.533460972830653"><time>2025-08-16T06:43:27.000Z</time><extensions/></trkpt><trkpt lat="50.000586938112974" lon="8.533390397205949"><time>2025-08-16T06:43:51.000Z</time><extensions/></trkpt><trkpt lat="50.000554751604795" lon="8.533181184902787"><time>2025-08-16T06:44:12.000Z</time><extensions/></trkpt><trkpt lat="50.00061376020312" lon="8.53287004865706"><time>2025-08-16T06:44:39.000Z</time><extensions/></trkpt><trkpt lat="50.00049842521548" lon="8.532746667042375"><time>2025-08-16T06:45:06.000Z</time><extensions/></trkpt><trkpt lat="50.00049012713134" lon="8.53275471366942"><time>2025-08-16T06:45:11.000Z</time><extensions/></trkpt><trkpt lat="50.00035869888961" lon="8.532698387280107"><time>2025-08-16T06:45:29.000Z</time><extensions/></trkpt><trkpt lat="50.00029147602618" lon="8.532590344548225"><time>2025-08-16T06:45:49.000Z</time><extensions/></trkpt><trkpt lat="50.00016541220248" lon="8.532434776425362"><time>2025-08-16T06:46:12.000Z</time><extensions/></trkpt><trkpt lat="49.999856958165765" lon="8.532579615712166"><time>2025-08-16T06:46:40.000Z</time><extensions/></trkpt><trkpt lat="49.999765595421195" lon="8.532678438350558"><time>2025-08-16T06:47:06.000Z</time><extensions/></trkpt><trkpt lat="49.99972536228597" lon="8.532697213813663"><time>2025-08-16T06:47:59.000Z</time><extensions/></trkpt><trkpt lat="49.99978386797011" lon="8.532662093639374"><time>2025-08-16T06:48:15.000Z</time><extensions/></trkpt><trkpt lat="49.999639028683305" lon="8.532656729221344"><time>2025-08-16T06:49:10.000Z</time><extensions/></trkpt><trkpt lat="49.999725446105" lon="8.532562181353569"><time>2025-08-16T06:49:49.000Z</time><extensions/></trkpt><trkpt lat="49.99979518353939" lon="8.532602414488792"><time>2025-08-16T06:50:26.000Z</time><extensions/></trkpt><trkpt lat="49.99980876222253" lon="8.532610712572932"><time>2025-08-16T06:50:38.000Z</time><extensions/></trkpt><trkpt lat="49.99979803338647" lon="8.532634852454066"><time>2025-08-16T06:51:21.000Z</time><extensions/></trkpt><trkpt lat="49.99974531121552" lon="8.532855296507478"><time>2025-08-16T06:51:41.000Z</time><extensions/></trkpt><trkpt lat="49.99980700202286" lon="8.533456111326814"><time>2025-08-16T06:52:46.000Z</time><extensions/></trkpt><trkpt lat="49.99981605447829" lon="8.533628359436989"><time>2025-08-16T06:53:09.000Z</time><extensions/></trkpt><trkpt lat="49.99982460401952" lon="8.533842852339149"><time>2025-08-16T06:53:30.000Z</time><extensions/></trkpt><trkpt lat="49.999870201572776" lon="8.533904543146491"><time>2025-08-16T06:53:51.000Z</time><extensions/></trkpt><trkpt lat="49.999876990914345" lon="8.533933209255338"><time>2025-08-16T06:53:59.000Z</time><extensions/></trkpt><trkpt lat="49.999995008111" lon="8.534048544242978"><time>2025-08-16T06:54:27.000Z</time><extensions/></trkpt><trkpt lat="50.00004571862519" lon="8.534255577251315"><time>2025-08-16T06:54:50.000Z</time><extensions/></trkpt><trkpt lat="50.00021201558411" lon="8.53449429385364"><time>2025-08-16T06:55:35.000Z</time><extensions/></trkpt><trkpt lat="50.00029030255973" lon="8.53482898324728"><time>2025-08-16T06:56:03.000Z</time><extensions/></trkpt><trkpt lat="50.000373451039195" lon="8.535486124455929"><time>2025-08-16T06:57:00.000Z</time><extensions/></trkpt><trkpt lat="50.000439835712314" lon="8.535757279023528"><time>2025-08-16T06:57:23.000Z</time><extensions/></trkpt><trkpt lat="50.00047470442951" lon="8.536545848473907"><time>2025-08-16T06:58:23.000Z</time><extensions/></trkpt><trkpt lat="50.0006078928709" lon="8.536678701639175"><time>2025-08-16T06:58:45.000Z</time><extensions/></trkpt><trkpt lat="50.000695483759046" lon="8.53680258616805"><time>2025-08-16T06:59:02.000Z</time><extensions/></trkpt><trkpt lat="50.000843005254865" lon="8.537009116262197"><time>2025-08-16T06:59:23.000Z</time><extensions/></trkpt><trkpt lat="50.000990526750684" lon="8.537333663553"><time>2025-08-16T06:59:49.000Z</time><extensions/></trkpt><trkpt lat="50.001079039648175" lon="8.537778910249472"><time>2025-08-16T07:00:18.000Z</time><extensions/></trkpt><trkpt lat="50.001051630824804" lon="8.53785602375865"><time>2025-08-16T07:00:24.000Z</time><extensions/></trkpt><trkpt lat="50.000799503177404" lon="8.538062553852797"><time>2025-08-16T07:00:45.000Z</time><extensions/></trkpt><trkpt lat="50.0005822442472" lon="8.538140337914228"><time>2025-08-16T07:01:05.000Z</time><extensions/></trkpt><trkpt lat="50.0004749558866" lon="8.538084011524916"><time>2025-08-16T07:01:18.000Z</time><extensions/></trkpt><trkpt lat="50.00041611492634" lon="8.537702551111579"><time>2025-08-16T07:01:39.000Z</time><extensions/></trkpt><trkpt lat="50.00019080936909" lon="8.536576023325324"><time>2025-08-16T07:02:42.000Z</time><extensions/></trkpt><trkpt lat="50.000082682818174" lon="8.536052908748388"><time>2025-08-16T07:03:13.000Z</time><extensions/></trkpt><trkpt lat="49.99989224597812" lon="8.535060491412878"><time>2025-08-16T07:04:12.000Z</time><extensions/></trkpt><trkpt lat="49.999807588756084" lon="8.534595128148794"><time>2025-08-16T07:04:40.000Z</time><extensions/></trkpt><trkpt lat="49.9996842071414" lon="8.534007724374533"><time>2025-08-16T07:05:13.000Z</time><extensions/></trkpt><trkpt lat="49.999627377837896" lon="8.53373246267438"><time>2025-08-16T07:05:30.000Z</time><extensions/></trkpt><trkpt lat="49.99949594959617" lon="8.532731998711824"><time>2025-08-16T07:06:33.000Z</time><extensions/></trkpt><trkpt lat="49.99953601509333" lon="8.532647006213665"><time>2025-08-16T07:06:53.000Z</time><extensions/></trkpt><trkpt lat="49.99951723963022" lon="8.532636277377605"><time>2025-08-16T07:08:04.000Z</time><extensions/></trkpt><trkpt lat="49.99951430596411" lon="8.532638791948557"><time>2025-08-16T07:08:54.000Z</time><extensions/></trkpt><trkpt lat="49.99952771700919" lon="8.532652202993631"><time>2025-08-16T07:09:42.000Z</time><extensions/></trkpt><trkpt lat="49.99953618273139" lon="8.532692771404982"><time>2025-08-16T07:10:31.000Z</time><extensions/></trkpt><trkpt lat="49.99954154714942" lon="8.532668631523848"><time>2025-08-16T07:11:17.000Z</time><extensions/></trkpt></trkseg></trk></gpx>